sensor_id;sensor_type;location;lat;lon;timestamp;pressure;altitude;pressure_sealevel;temperature;humidity
8047;BME280;74083;42.516;23.358;2024-02-15T00:02:24;88594.19;;;4.44;66.93
8047;BME280;74083;42.516;23.358;2024-02-15T00:05:09;88586.81;;;4.43;66.71
8047;BME280;74083;42.516;23.358;2024-02-15T00:07:55;88590.06;;;4.43;66.51
8047;BME280;74083;42.516;23.358;2024-02-15T00:10:41;88587.59;;;4.43;66.58
8047;BME280;74083;42.516;23.358;2024-02-15T00:13:30;88588.47;;;4.42;66.91
8047;BME280;74083;42.516;23.358;2024-02-15T00:16:17;88585.19;;;4.42;66.83
8047;BME280;74083;42.516;23.358;2024-02-15T00:19:05;88588.53;;;4.41;66.99
8047;BME280;74083;42.516;23.358;2024-02-15T00:21:51;88590.22;;;4.40;66.84
8047;BME280;74083;42.516;23.358;2024-02-15T00:24:37;88592.88;;;4.37;67.05
8047;BME280;74083;42.516;23.358;2024-02-15T00:27:23;88591.94;;;4.40;66.75
8047;BME280;74083;42.516;23.358;2024-02-15T00:30:09;88592.00;;;4.38;67.00
8047;BME280;74083;42.516;23.358;2024-02-15T00:32:55;88594.44;;;4.40;66.72
8047;BME280;74083;42.516;23.358;2024-02-15T00:35:42;88598.66;;;4.38;66.77
8047;BME280;74083;42.516;23.358;2024-02-15T00:38:28;88594.44;;;4.40;66.60
8047;BME280;74083;42.516;23.358;2024-02-15T00:41:15;88592.88;;;4.37;66.64
8047;BME280;74083;42.516;23.358;2024-02-15T00:44:00;88602.84;;;4.37;66.84
8047;BME280;74083;42.516;23.358;2024-02-15T00:46:45;88602.84;;;4.37;66.18
8047;BME280;74083;42.516;23.358;2024-02-15T00:49:31;88607.06;;;4.37;66.81
8047;BME280;74083;42.516;23.358;2024-02-15T00:52:19;88600.34;;;4.37;66.66
8047;BME280;74083;42.516;23.358;2024-02-15T00:55:05;88604.63;;;4.35;66.66
8047;BME280;74083;42.516;23.358;2024-02-15T00:57:51;88599.56;;;4.37;66.59
8047;BME280;74083;42.516;23.358;2024-02-15T01:00:36;88592.16;;;4.35;66.48
8047;BME280;74083;42.516;23.358;2024-02-15T01:03:22;88593.81;;;4.35;66.64
8047;BME280;74083;42.516;23.358;2024-02-15T01:06:08;88601.31;;;4.35;66.51
8047;BME280;74083;42.516;23.358;2024-02-15T01:08:55;88593.91;;;4.33;66.67
8047;BME280;74083;42.516;23.358;2024-02-15T01:11:41;88598.03;;;4.34;66.65
8047;BME280;74083;42.516;23.358;2024-02-15T01:14:27;88598.91;;;4.33;66.14
8047;BME280;74083;42.516;23.358;2024-02-15T01:17:14;88593.19;;;4.31;66.15
8047;BME280;74083;42.516;23.358;2024-02-15T01:20:01;88596.56;;;4.30;66.16
8047;BME280;74083;42.516;23.358;2024-02-15T01:22:46;88596.56;;;4.30;66.14
8047;BME280;74083;42.516;23.358;2024-02-15T01:25:33;88599.06;;;4.30;66.33
8047;BME280;74083;42.516;23.358;2024-02-15T01:28:18;88589.94;;;4.29;66.12
8047;BME280;74083;42.516;23.358;2024-02-15T01:31:04;88583.38;;;4.28;65.92
8047;BME280;74083;42.516;23.358;2024-02-15T01:33:51;88584.91;;;4.31;66.10
8047;BME280;74083;42.516;23.358;2024-02-15T01:36:36;88587.44;;;4.29;65.93
8047;BME280;74083;42.516;23.358;2024-02-15T01:39:22;88594.94;;;4.29;66.19
8047;BME280;74083;42.516;23.358;2024-02-15T01:42:09;88601.59;;;4.29;66.46
8047;BME280;74083;42.516;23.358;2024-02-15T01:44:54;88591.63;;;4.29;66.14
8047;BME280;74083;42.516;23.358;2024-02-15T01:47:40;88591.72;;;4.27;66.17
8047;BME280;74083;42.516;23.358;2024-02-15T01:50:27;88591.72;;;4.27;66.00
8047;BME280;74083;42.516;23.358;2024-02-15T01:53:12;88598.31;;;4.28;66.14
8047;BME280;74083;42.516;23.358;2024-02-15T01:55:58;88595.88;;;4.27;66.10
8047;BME280;74083;42.516;23.358;2024-02-15T01:58:46;88598.38;;;4.27;66.14
8047;BME280;74083;42.516;23.358;2024-02-15T02:01:32;88596.69;;;4.27;66.30
8047;BME280;74083;42.516;23.358;2024-02-15T02:04:18;88592.59;;;4.26;66.12
8047;BME280;74083;42.516;23.358;2024-02-15T02:07:04;88589.28;;;4.26;66.22
8047;BME280;74083;42.516;23.358;2024-02-15T02:09:50;88592.59;;;4.26;66.12
8047;BME280;74083;42.516;23.358;2024-02-15T02:12:35;88591.78;;;4.26;66.33
8047;BME280;74083;42.516;23.358;2024-02-15T02:15:22;88589.28;;;4.26;66.13
8047;BME280;74083;42.516;23.358;2024-02-15T02:18:08;88591.88;;;4.24;66.18
8047;BME280;74083;42.516;23.358;2024-02-15T02:20:54;88592.72;;;4.23;66.50
8047;BME280;74083;42.516;23.358;2024-02-15T02:23:40;88594.25;;;4.26;66.18
8047;BME280;74083;42.516;23.358;2024-02-15T02:26:27;88589.38;;;4.24;66.45
8047;BME280;74083;42.516;23.358;2024-02-15T02:29:13;88596.84;;;4.24;66.26
8047;BME280;74083;42.516;23.358;2024-02-15T02:31:59;88603.53;;;4.24;66.40
8047;BME280;74083;42.516;23.358;2024-02-15T02:34:45;88610.19;;;4.23;66.09
8047;BME280;74083;42.516;23.358;2024-02-15T02:37:31;88607.69;;;4.23;66.12
8047;BME280;74083;42.516;23.358;2024-02-15T02:40:20;88601.16;;;4.21;66.33
8047;BME280;74083;42.516;23.358;2024-02-15T02:43:08;88619.44;;;4.21;66.10
8047;BME280;74083;42.516;23.358;2024-02-15T02:45:54;88609.47;;;4.21;66.24
8047;BME280;74083;42.516;23.358;2024-02-15T02:48:39;88605.28;;;4.22;66.41
8047;BME280;74083;42.516;23.358;2024-02-15T02:51:25;88606.97;;;4.21;66.02
8047;BME280;74083;42.516;23.358;2024-02-15T02:54:11;88606.09;;;4.22;66.40
8047;BME280;74083;42.516;23.358;2024-02-15T02:56:57;88613.63;;;4.21;66.23
8047;BME280;74083;42.516;23.358;2024-02-15T02:59:43;88612.03;;;4.20;66.01
8047;BME280;74083;42.516;23.358;2024-02-15T03:02:29;88602.84;;;4.20;66.04
8047;BME280;74083;42.516;23.358;2024-02-15T03:05:15;88614.53;;;4.20;66.41
8047;BME280;74083;42.516;23.358;2024-02-15T03:08:00;88611.22;;;4.19;65.89
8047;BME280;74083;42.516;23.358;2024-02-15T03:10:46;88603.00;;;4.17;66.23
8047;BME280;74083;42.516;23.358;2024-02-15T03:13:32;88612.91;;;4.19;66.36
8047;BME280;74083;42.516;23.358;2024-02-15T03:16:22;88609.69;;;4.17;66.18
8047;BME280;74083;42.516;23.358;2024-02-15T03:19:09;88612.09;;;4.18;66.22
8047;BME280;74083;42.516;23.358;2024-02-15T03:21:55;88617.09;;;4.18;66.25
8047;BME280;74083;42.516;23.358;2024-02-15T03:24:41;88616.38;;;4.16;66.08
8047;BME280;74083;42.516;23.358;2024-02-15T03:27:27;88619.66;;;4.17;66.08
8047;BME280;74083;42.516;23.358;2024-02-15T03:30:13;88609.75;;;4.15;66.23
8047;BME280;74083;42.516;23.358;2024-02-15T03:33:00;88614.75;;;4.15;66.20
8047;BME280;74083;42.516;23.358;2024-02-15T03:35:47;88617.22;;;4.15;65.94
8047;BME280;74083;42.516;23.358;2024-02-15T03:38:33;88611.38;;;4.16;65.79
8047;BME280;74083;42.516;23.358;2024-02-15T03:41:18;88612.34;;;4.14;65.99
8047;BME280;74083;42.516;23.358;2024-02-15T03:44:04;88604.84;;;4.14;66.15
8047;BME280;74083;42.516;23.358;2024-02-15T03:46:49;88606.53;;;4.13;65.72
8047;BME280;74083;42.516;23.358;2024-02-15T03:49:37;88613.19;;;4.13;65.96
8047;BME280;74083;42.516;23.358;2024-02-15T03:52:24;88607.41;;;4.12;66.22
8047;BME280;74083;42.516;23.358;2024-02-15T03:55:09;88609.84;;;4.14;65.91
8047;BME280;74083;42.516;23.358;2024-02-15T03:57:55;88615.69;;;4.13;66.00
8047;BME280;74083;42.516;23.358;2024-02-15T04:00:41;88609.09;;;4.12;65.78
8047;BME280;74083;42.516;23.358;2024-02-15T04:03:28;88610.03;;;4.09;65.72
8047;BME280;74083;42.516;23.358;2024-02-15T04:06:17;88610.75;;;4.11;66.08
8047;BME280;74083;42.516;23.358;2024-02-15T04:09:03;88605.78;;;4.11;66.10
8047;BME280;74083;42.516;23.358;2024-02-15T04:11:49;88605.78;;;4.11;65.99
8047;BME280;74083;42.516;23.358;2024-02-15T04:14:37;88596.75;;;4.09;65.80
8047;BME280;74083;42.516;23.358;2024-02-15T04:17:23;88603.38;;;4.10;65.69
8047;BME280;74083;42.516;23.358;2024-02-15T04:20:10;88605.88;;;4.10;66.04
8047;BME280;74083;42.516;23.358;2024-02-15T04:22:57;88615.09;;;4.08;65.71
8047;BME280;74083;42.516;23.358;2024-02-15T04:25:44;88607.63;;;4.08;66.01
8047;BME280;74083;42.516;23.358;2024-02-15T04:28:35;88617.59;;;4.08;66.01
8047;BME280;74083;42.516;23.358;2024-02-15T04:31:20;88613.41;;;4.08;65.80
8047;BME280;74083;42.516;23.358;2024-02-15T04:34:10;88620.88;;;4.08;65.84
8047;BME280;74083;42.516;23.358;2024-02-15T04:36:55;88611.00;;;4.07;65.88
8047;BME280;74083;42.516;23.358;2024-02-15T04:39:42;88614.34;;;4.06;65.79
8047;BME280;74083;42.516;23.358;2024-02-15T04:42:28;88613.53;;;4.05;65.58
8047;BME280;74083;42.516;23.358;2024-02-15T04:45:16;88618.53;;;4.05;65.91
8047;BME280;74083;42.516;23.358;2024-02-15T04:48:03;88626.81;;;4.06;65.88
8047;BME280;74083;42.516;23.358;2024-02-15T04:50:49;88626.81;;;4.06;65.59
8047;BME280;74083;42.516;23.358;2024-02-15T04:53:35;88622.78;;;4.03;65.61
8047;BME280;74083;42.516;23.358;2024-02-15T04:56:24;88625.28;;;4.03;65.96
8047;BME280;74083;42.516;23.358;2024-02-15T04:59:10;88626.97;;;4.03;65.61
8047;BME280;74083;42.516;23.358;2024-02-15T05:01:59;88636.16;;;4.02;65.70
8047;BME280;74083;42.516;23.358;2024-02-15T05:04:45;88636.94;;;4.03;65.68
8047;BME280;74083;42.516;23.358;2024-02-15T05:07:31;88635.34;;;4.02;65.72
8047;BME280;74083;42.516;23.358;2024-02-15T05:10:17;88634.44;;;4.03;65.66
8047;BME280;74083;42.516;23.358;2024-02-15T05:13:04;88647.81;;;4.02;65.71
8047;BME280;74083;42.516;23.358;2024-02-15T05:15:50;88651.97;;;4.01;65.68
8047;BME280;74083;42.516;23.358;2024-02-15T05:18:36;88652.78;;;4.02;65.35
8047;BME280;74083;42.516;23.358;2024-02-15T05:21:24;88649.47;;;4.01;65.89
8047;BME280;74083;42.516;23.358;2024-02-15T05:24:09;88655.34;;;4.00;65.75
8047;BME280;74083;42.516;23.358;2024-02-15T05:26:55;88657.00;;;4.00;65.32
8047;BME280;74083;42.516;23.358;2024-02-15T05:29:42;88666.19;;;3.99;65.35
8047;BME280;74083;42.516;23.358;2024-02-15T05:32:27;88666.19;;;3.99;65.58
8047;BME280;74083;42.516;23.358;2024-02-15T05:35:13;88672.88;;;3.99;65.85
8047;BME280;74083;42.516;23.358;2024-02-15T05:37:59;88666.25;;;3.97;65.50
8047;BME280;74083;42.516;23.358;2024-02-15T05:40:47;88668.75;;;3.97;65.62
8047;BME280;74083;42.516;23.358;2024-02-15T05:43:35;88661.34;;;3.96;65.37
8047;BME280;74083;42.516;23.358;2024-02-15T05:46:24;88660.53;;;3.95;65.97
8047;BME280;74083;42.516;23.358;2024-02-15T05:49:09;88668.84;;;3.96;65.68
8047;BME280;74083;42.516;23.358;2024-02-15T05:51:59;88669.69;;;3.95;65.72
8047;BME280;74083;42.516;23.358;2024-02-15T05:54:45;88676.38;;;3.94;65.54
8047;BME280;74083;42.516;23.358;2024-02-15T05:57:30;88673.00;;;3.95;65.78
8047;BME280;74083;42.516;23.358;2024-02-15T06:00:17;88674.69;;;3.95;65.92
8047;BME280;74083;42.516;23.358;2024-02-15T06:03:05;88674.69;;;3.95;65.48
8047;BME280;74083;42.516;23.358;2024-02-15T06:05:50;88685.53;;;3.94;65.60
8047;BME280;74083;42.516;23.358;2024-02-15T06:08:36;88686.41;;;3.93;65.74
8047;BME280;74083;42.516;23.358;2024-02-15T06:11:22;88691.41;;;3.93;65.68
8047;BME280;74083;42.516;23.358;2024-02-15T06:14:08;88696.38;;;3.93;65.38
8047;BME280;74083;42.516;23.358;2024-02-15T06:16:53;88701.38;;;3.93;65.43
8047;BME280;74083;42.516;23.358;2024-02-15T06:19:41;88704.78;;;3.90;65.88
8047;BME280;74083;42.516;23.358;2024-02-15T06:22:27;88713.03;;;3.92;65.21
8047;BME280;74083;42.516;23.358;2024-02-15T06:25:14;88708.03;;;3.92;65.67
8047;BME280;74083;42.516;23.358;2024-02-15T06:28:05;88710.53;;;3.92;65.46
8047;BME280;74083;42.516;23.358;2024-02-15T06:30:57;88711.34;;;3.93;65.17
8047;BME280;74083;42.516;23.358;2024-02-15T06:34:00;88714.69;;;3.92;65.49
8047;BME280;74083;42.516;23.358;2024-02-15T06:37:05;88721.44;;;3.90;65.64
8047;BME280;74083;42.516;23.358;2024-02-15T06:40:13;88724.81;;;3.89;65.90
8047;BME280;74083;42.516;23.358;2024-02-15T06:42:58;88723.94;;;3.90;65.79
8047;BME280;74083;42.516;23.358;2024-02-15T06:45:44;88718.97;;;3.90;65.92
8047;BME280;74083;42.516;23.358;2024-02-15T06:48:31;88708.22;;;3.88;65.66
8047;BME280;74083;42.516;23.358;2024-02-15T06:51:16;88708.22;;;3.88;65.61
8047;BME280;74083;42.516;23.358;2024-02-15T06:54:03;88724.00;;;3.88;65.54
8047;BME280;74083;42.516;23.358;2024-02-15T06:56:49;88715.66;;;3.89;65.57
8047;BME280;74083;42.516;23.358;2024-02-15T06:59:36;88720.69;;;3.88;65.80
8047;BME280;74083;42.516;23.358;2024-02-15T07:02:23;88722.41;;;3.87;65.47
8047;BME280;74083;42.516;23.358;2024-02-15T07:05:09;88723.13;;;3.89;65.69
8047;BME280;74083;42.516;23.358;2024-02-15T07:07:55;88724.00;;;3.88;65.38
8047;BME280;74083;42.516;23.358;2024-02-15T07:10:42;88721.59;;;3.87;65.70
8047;BME280;74083;42.516;23.358;2024-02-15T07:13:27;88719.91;;;3.87;65.62
8047;BME280;74083;42.516;23.358;2024-02-15T07:16:13;88726.56;;;3.87;65.59
8047;BME280;74083;42.516;23.358;2024-02-15T07:18:59;88728.31;;;3.85;65.53
8047;BME280;74083;42.516;23.358;2024-02-15T07:21:45;88728.31;;;3.85;65.62
8047;BME280;74083;42.516;23.358;2024-02-15T07:24:31;88733.28;;;3.85;65.52
8047;BME280;74083;42.516;23.358;2024-02-15T07:27:17;88729.13;;;3.85;65.75
8047;BME280;74083;42.516;23.358;2024-02-15T07:30:03;88729.94;;;3.86;65.55
8047;BME280;74083;42.516;23.358;2024-02-15T07:32:49;88727.44;;;3.86;65.58
8047;BME280;74083;42.516;23.358;2024-02-15T07:35:35;88733.28;;;3.85;65.43
8047;BME280;74083;42.516;23.358;2024-02-15T07:38:21;88730.78;;;3.85;65.63
8047;BME280;74083;42.516;23.358;2024-02-15T07:41:06;88729.13;;;3.85;65.54
8047;BME280;74083;42.516;23.358;2024-02-15T07:43:54;88729.94;;;3.86;65.36
8047;BME280;74083;42.516;23.358;2024-02-15T07:46:42;88729.13;;;3.85;65.73
8047;BME280;74083;42.516;23.358;2024-02-15T07:49:27;88724.13;;;3.85;65.73
8047;BME280;74083;42.516;23.358;2024-02-15T07:52:12;88727.44;;;3.86;65.50
8047;BME280;74083;42.516;23.358;2024-02-15T07:54:58;88729.06;;;3.87;65.60
8047;BME280;74083;42.516;23.358;2024-02-15T07:57:46;88725.75;;;3.86;66.00
8047;BME280;74083;42.516;23.358;2024-02-15T08:00:33;88732.38;;;3.87;65.41
8047;BME280;74083;42.516;23.358;2024-02-15T08:03:19;88728.16;;;3.88;65.82
8047;BME280;74083;42.516;23.358;2024-02-15T08:06:05;88731.56;;;3.87;65.82
8047;BME280;74083;42.516;23.358;2024-02-15T08:08:51;88726.44;;;3.90;65.83
8047;BME280;74083;42.516;23.358;2024-02-15T08:11:36;88724.91;;;3.87;65.88
8047;BME280;74083;42.516;23.358;2024-02-15T08:14:23;88723.19;;;3.88;65.98
8047;BME280;74083;42.516;23.358;2024-02-15T08:17:10;88721.59;;;3.87;65.83
8047;BME280;74083;42.516;23.358;2024-02-15T08:19:56;88721.59;;;3.87;66.02
8047;BME280;74083;42.516;23.358;2024-02-15T08:22:42;88716.38;;;3.91;65.91
8047;BME280;74083;42.516;23.358;2024-02-15T08:25:27;88718.97;;;3.90;66.04
8047;BME280;74083;42.516;23.358;2024-02-15T08:28:13;88721.44;;;3.90;65.83
8047;BME280;74083;42.516;23.358;2024-02-15T08:30:59;88726.44;;;3.90;65.93
8047;BME280;74083;42.516;23.358;2024-02-15T08:33:46;88721.44;;;3.90;66.42
8047;BME280;74083;42.516;23.358;2024-02-15T08:36:31;88729.78;;;3.89;66.25
8047;BME280;74083;42.516;23.358;2024-02-15T08:39:17;88722.31;;;3.89;66.13
8047;BME280;74083;42.516;23.358;2024-02-15T08:42:03;88723.94;;;3.90;66.41
8047;BME280;74083;42.516;23.358;2024-02-15T08:44:49;88722.22;;;3.90;66.23
8047;BME280;74083;42.516;23.358;2024-02-15T08:47:35;88718.81;;;3.93;66.42
8047;BME280;74083;42.516;23.358;2024-02-15T08:50:23;88715.44;;;3.94;66.13
8047;BME280;74083;42.516;23.358;2024-02-15T08:53:08;88723.84;;;3.91;66.33
8047;BME280;74083;42.516;23.358;2024-02-15T08:55:54;88716.38;;;3.91;66.20
8047;BME280;74083;42.516;23.358;2024-02-15T08:58:39;88723.84;;;3.91;66.52
8047;BME280;74083;42.516;23.358;2024-02-15T09:01:26;88713.88;;;3.91;66.34
8047;BME280;74083;42.516;23.358;2024-02-15T09:04:12;88717.13;;;3.93;66.18
8047;BME280;74083;42.516;23.358;2024-02-15T09:06:58;88714.56;;;3.95;66.25
8047;BME280;74083;42.516;23.358;2024-02-15T09:09:48;88726.03;;;3.99;66.25
8047;BME280;74083;42.516;23.358;2024-02-15T09:12:33;88725.47;;;3.92;66.42
8047;BME280;74083;42.516;23.358;2024-02-15T09:15:21;88720.41;;;3.94;66.27
8047;BME280;74083;42.516;23.358;2024-02-15T09:18:07;88715.38;;;3.95;66.01
8047;BME280;74083;42.516;23.358;2024-02-15T09:20:53;88717.94;;;3.94;66.47
8047;BME280;74083;42.516;23.358;2024-02-15T09:23:41;88717.94;;;3.94;66.39
8047;BME280;74083;42.516;23.358;2024-02-15T09:26:27;88719.69;;;3.92;67.01
8047;BME280;74083;42.516;23.358;2024-02-15T09:29:13;88714.56;;;3.95;66.89
8047;BME280;74083;42.516;23.358;2024-02-15T09:31:58;88714.69;;;3.92;67.58
8047;BME280;74083;42.516;23.358;2024-02-15T09:34:46;88715.50;;;3.92;67.71
8047;BME280;74083;42.516;23.358;2024-02-15T09:37:32;88720.56;;;3.91;68.39
8047;BME280;74083;42.516;23.358;2024-02-15T09:40:19;88717.47;;;3.86;69.74
8047;BME280;74083;42.516;23.358;2024-02-15T09:43:04;88721.19;;;3.77;71.04
8047;BME280;74083;42.516;23.358;2024-02-15T09:45:50;88719.97;;;3.86;69.60
8047;BME280;74083;42.516;23.358;2024-02-15T09:48:37;88724.47;;;3.78;71.45
8047;BME280;74083;42.516;23.358;2024-02-15T09:51:26;88723.72;;;3.76;72.06
8047;BME280;74083;42.516;23.358;2024-02-15T09:54:14;88720.38;;;3.77;71.34
8047;BME280;74083;42.516;23.358;2024-02-15T09:57:08;88716.47;;;3.71;72.02
8047;BME280;74083;42.516;23.358;2024-02-15T09:59:54;88724.16;;;3.67;72.89
8047;BME280;74083;42.516;23.358;2024-02-15T10:02:40;88710.81;;;3.68;72.56
8047;BME280;74083;42.516;23.358;2024-02-15T10:05:26;88707.31;;;3.72;71.48
8047;BME280;74083;42.516;23.358;2024-02-15T10:08:12;88705.00;;;3.67;72.46
8047;BME280;74083;42.516;23.358;2024-02-15T10:11:05;88707.59;;;3.66;71.96
8047;BME280;74083;42.516;23.358;2024-02-15T10:13:54;88708.56;;;3.62;72.38
8047;BME280;74083;42.516;23.358;2024-02-15T10:16:56;88705.13;;;3.64;72.50
8047;BME280;74083;42.516;23.358;2024-02-15T10:19:42;88697.47;;;3.69;72.63
8047;BME280;74083;42.516;23.358;2024-02-15T10:22:28;88694.44;;;3.62;72.63
8047;BME280;74083;42.516;23.358;2024-02-15T10:25:14;88692.63;;;3.66;72.52
8047;BME280;74083;42.516;23.358;2024-02-15T10:28:01;88695.84;;;3.68;72.11
8047;BME280;74083;42.516;23.358;2024-02-15T10:30:52;88696.66;;;3.68;71.86
8047;BME280;74083;42.516;23.358;2024-02-15T10:33:37;88681.03;;;3.65;71.61
8047;BME280;74083;42.516;23.358;2024-02-15T10:36:23;88677.41;;;3.72;70.96
8047;BME280;74083;42.516;23.358;2024-02-15T10:39:11;88677.41;;;3.72;71.49
8047;BME280;74083;42.516;23.358;2024-02-15T10:42:01;88674.38;;;3.65;70.89
8047;BME280;74083;42.516;23.358;2024-02-15T10:44:47;88673.50;;;3.66;71.59
8047;BME280;74083;42.516;23.358;2024-02-15T10:47:35;88676.50;;;3.73;71.74
8047;BME280;74083;42.516;23.358;2024-02-15T10:50:22;88669.25;;;3.68;70.89
8047;BME280;74083;42.516;23.358;2024-02-15T10:53:15;88669.22;;;3.70;71.20
8047;BME280;74083;42.516;23.358;2024-02-15T10:56:14;88667.44;;;3.72;71.10
8047;BME280;74083;42.516;23.358;2024-02-15T10:59:10;88666.28;;;3.79;71.07
8047;BME280;74083;42.516;23.358;2024-02-15T11:01:59;88660.56;;;3.77;70.91
8047;BME280;74083;42.516;23.358;2024-02-15T11:04:52;88661.16;;;3.82;70.38
8047;BME280;74083;42.516;23.358;2024-02-15T11:07:41;88670.41;;;3.80;70.77
8047;BME280;74083;42.516;23.358;2024-02-15T11:10:27;88669.53;;;3.81;70.76
8047;BME280;74083;42.516;23.358;2024-02-15T11:13:13;88666.00;;;3.85;70.65
8047;BME280;74083;42.516;23.358;2024-02-15T11:15:59;88658.25;;;3.91;70.23
8047;BME280;74083;42.516;23.358;2024-02-15T11:18:47;88666.75;;;3.87;70.12
8047;BME280;74083;42.516;23.358;2024-02-15T11:21:54;88666.34;;;3.96;70.42
8047;BME280;74083;42.516;23.358;2024-02-15T11:24:48;88665.72;;;3.91;70.38
8047;BME280;74083;42.516;23.358;2024-02-15T11:27:34;88667.41;;;3.90;70.39
8047;BME280;74083;42.516;23.358;2024-02-15T11:30:31;88658.09;;;3.94;70.58
8047;BME280;74083;42.516;23.358;2024-02-15T11:33:27;88662.00;;;4.00;70.26
8047;BME280;74083;42.516;23.358;2024-02-15T11:36:13;88652.84;;;4.00;70.12
8047;BME280;74083;42.516;23.358;2024-02-15T11:42:28;88654.59;;;3.98;70.25
8047;BME280;74083;42.516;23.358;2024-02-15T11:45:15;88653.94;;;3.94;70.02
8047;BME280;74083;42.516;23.358;2024-02-15T11:48:03;88661.81;;;4.04;70.86
8047;BME280;74083;42.516;23.358;2024-02-15T11:50:55;88654.53;;;4.00;69.40
8047;BME280;74083;42.516;23.358;2024-02-15T11:53:40;88651.25;;;3.99;69.62
8047;BME280;74083;42.516;23.358;2024-02-15T11:56:28;88643.16;;;4.11;69.69
8047;BME280;74083;42.516;23.358;2024-02-15T11:59:13;88644.28;;;4.06;69.29
8047;BME280;74083;42.516;23.358;2024-02-15T12:02:13;88644.59;;;4.17;69.38
8047;BME280;74083;42.516;23.358;2024-02-15T12:05:16;88644.59;;;4.17;68.90
8047;BME280;74083;42.516;23.358;2024-02-15T12:08:20;88638.22;;;4.28;69.25
8047;BME280;74083;42.516;23.358;2024-02-15T12:11:23;88639.75;;;4.31;69.18
8047;BME280;74083;42.516;23.358;2024-02-15T12:14:28;88639.16;;;4.26;69.20
8047;BME280;74083;42.516;23.358;2024-02-15T12:17:36;88633.81;;;4.16;68.49
8047;BME280;74083;42.516;23.358;2024-02-15T12:20:39;88631.31;;;4.16;68.94
8047;BME280;74083;42.516;23.358;2024-02-15T12:23:24;88633.81;;;4.16;68.89
8047;BME280;74083;42.516;23.358;2024-02-15T12:26:10;88640.50;;;4.33;68.93
8047;BME280;74083;42.516;23.358;2024-02-15T12:28:58;88632.63;;;4.40;68.54
8047;BME280;74083;42.516;23.358;2024-02-15T12:31:46;88629.63;;;4.51;68.81
8047;BME280;74083;42.516;23.358;2024-02-15T12:34:33;88632.19;;;4.49;68.10
8047;BME280;74083;42.516;23.358;2024-02-15T12:37:21;88640.28;;;4.55;67.85
8047;BME280;74083;42.516;23.358;2024-02-15T12:40:11;88632.34;;;4.46;67.37
8047;BME280;74083;42.516;23.358;2024-02-15T12:43:00;88624.28;;;4.41;68.25
8047;BME280;74083;42.516;23.358;2024-02-15T12:45:45;88625.47;;;4.34;67.92
8047;BME280;74083;42.516;23.358;2024-02-15T12:48:32;88619.59;;;4.35;68.24
8047;BME280;74083;42.516;23.358;2024-02-15T12:51:19;88614.94;;;4.62;67.49
8047;BME280;74083;42.516;23.358;2024-02-15T12:54:08;88616.19;;;4.53;67.59
8047;BME280;74083;42.516;23.358;2024-02-15T12:57:07;88616.88;;;4.57;67.18
8047;BME280;74083;42.516;23.358;2024-02-15T12:59:53;88632.03;;;4.52;67.25
8047;BME280;74083;42.516;23.358;2024-02-15T13:02:38;88623.16;;;4.47;67.15
8047;BME280;74083;42.516;23.358;2024-02-15T13:05:26;88634.91;;;4.45;67.90
8047;BME280;74083;42.516;23.358;2024-02-15T13:08:12;88635.72;;;4.63;67.73
8047;BME280;74083;42.516;23.358;2024-02-15T13:10:58;88631.97;;;4.54;67.42
8047;BME280;74083;42.516;23.358;2024-02-15T13:13:43;88628.22;;;4.63;67.94
8047;BME280;74083;42.516;23.358;2024-02-15T13:16:29;88622.44;;;4.62;67.10
8047;BME280;74083;42.516;23.358;2024-02-15T13:19:15;88630.63;;;4.64;67.11
8047;BME280;74083;42.516;23.358;2024-02-15T13:22:02;88632.50;;;4.61;66.51
8047;BME280;74083;42.516;23.358;2024-02-15T13:24:48;88639.59;;;4.68;66.71
8047;BME280;74083;42.516;23.358;2024-02-15T13:27:33;88637.41;;;4.62;66.62
8047;BME280;74083;42.516;23.358;2024-02-15T13:30:19;88638.22;;;4.63;66.43
8047;BME280;74083;42.516;23.358;2024-02-15T13:33:07;88637.13;;;4.51;66.62
8047;BME280;74083;42.516;23.358;2024-02-15T13:35:53;88637.19;;;4.49;66.58
8047;BME280;74083;42.516;23.358;2024-02-15T13:38:40;88643.19;;;4.63;66.42
8047;BME280;74083;42.516;23.358;2024-02-15T13:41:26;88644.06;;;4.62;66.73
8047;BME280;74083;42.516;23.358;2024-02-15T13:44:12;88642.59;;;4.75;66.47
8047;BME280;74083;42.516;23.358;2024-02-15T13:46:58;88645.56;;;4.66;66.32
8047;BME280;74083;42.516;23.358;2024-02-15T13:49:44;88634.69;;;4.67;65.91
8047;BME280;74083;42.516;23.358;2024-02-15T13:52:30;88629.50;;;4.54;66.35
8047;BME280;74083;42.516;23.358;2024-02-15T13:55:18;88631.31;;;4.50;66.44
8047;BME280;74083;42.516;23.358;2024-02-15T13:58:04;88638.00;;;4.50;66.61
8047;BME280;74083;42.516;23.358;2024-02-15T14:00:52;88633.97;;;4.47;66.79
8047;BME280;74083;42.516;23.358;2024-02-15T14:03:38;88637.03;;;4.52;66.59
8047;BME280;74083;42.516;23.358;2024-02-15T14:06:23;88639.63;;;4.51;66.88
8047;BME280;74083;42.516;23.358;2024-02-15T14:09:08;88634.69;;;4.49;66.70
8047;BME280;74083;42.516;23.358;2024-02-15T14:11:57;88634.81;;;4.46;66.73
8047;BME280;74083;42.516;23.358;2024-02-15T14:14:42;88647.31;;;4.46;66.26
8047;BME280;74083;42.516;23.358;2024-02-15T14:17:28;88640.72;;;4.45;66.56
8047;BME280;74083;42.516;23.358;2024-02-15T14:20:13;88638.28;;;4.44;66.36
8047;BME280;74083;42.516;23.358;2024-02-15T14:22:59;88642.59;;;4.40;66.82
8047;BME280;74083;42.516;23.358;2024-02-15T14:25:49;88639.38;;;4.38;66.76
8047;BME280;74083;42.516;23.358;2024-02-15T14:28:38;88636.31;;;4.33;66.64
8047;BME280;74083;42.516;23.358;2024-02-15T14:31:26;88635.34;;;4.36;67.26
8047;BME280;74083;42.516;23.358;2024-02-15T14:34:29;88638.09;;;4.31;66.85
8047;BME280;74083;42.516;23.358;2024-02-15T14:37:14;88646.19;;;4.35;66.99
8047;BME280;74083;42.516;23.358;2024-02-15T14:40:01;88646.72;;;4.24;67.04
8047;BME280;74083;42.516;23.358;2024-02-15T14:42:47;88647.00;;;4.35;66.68
8047;BME280;74083;42.516;23.358;2024-02-15T14:45:34;88637.47;;;4.26;66.93
8047;BME280;74083;42.516;23.358;2024-02-15T14:48:21;88650.91;;;4.24;67.15
8047;BME280;74083;42.516;23.358;2024-02-15T14:51:08;88644.13;;;4.26;67.30
8047;BME280;74083;42.516;23.358;2024-02-15T14:53:54;88641.66;;;4.26;67.16
8047;BME280;74083;42.516;23.358;2024-02-15T14:56:40;88641.72;;;4.24;67.39
8047;BME280;74083;42.516;23.358;2024-02-15T14:59:26;88648.50;;;4.22;67.54
8047;BME280;74083;42.516;23.358;2024-02-15T15:02:13;88646.00;;;4.22;67.12